Terminal Aerodrome Forecast
Issued by NWS Central Illinois

Home | Current Version | Previous Version | Text Only | Print | Product List | Glossary On
Versions: 1 2 3 4 5 6 7 8 9 10 11 12 13 14 15
000
FTUS43 KILX 211750
TAFSPI
TAF
KSPI 211750Z 2118/2218 03005KT P6SM VCTS SCT035CB BKN150
     FM212000 19007KT P6SM VCTS SCT035CB BKN150
     FM220300 18008KT P6SM BKN250
     FM220800 22007KT 6SM SHRA VCTS OVC050CB
     FM221200 25006KT P6SM OVC050
     FM221400 26007KT P6SM OVC025=

USA.gov is the U.S. government's official web portal to all federal, state and local government web resources and services.